Time;durP1;ratioP1;P1;durP2;ratioP2;P2;SDS_P1;SDS_P2;PMS_P1;PMS_P2;Temp;Humidity;BMP_temperature;BMP_pressure;BME280_temperature;BME280_humidity;BME280_pressure;Samples;Min_cycle;Max_cycle;Signal;HPM_P1;HPM_P2
2021/05/24 00:00:48;;;;;;;3.22;2.75;;;;;;;22.07;44.88;99675.19;4942773;29;20012;-79
2021/05/24 00:03:14;;;;;;;3.03;2.70;;;;;;;21.58;45.06;99614.28;4942349;29;20044;-79
2021/05/24 00:05:40;;;;;;;4.57;2.92;;;;;;;22.03;44.97;99684.81;4942288;29;20051;-78
2021/05/24 00:08:07;;;;;;;3.33;2.70;;;;;;;22.04;45.27;99686.44;4912346;29;20024;-78
2021/05/24 00:10:39;;;;;;;4.97;2.75;;;;;;;21.89;45.32;99678.13;4939814;29;20023;-78
2021/05/24 00:13:07;;;;;;;3.95;3.05;;;;;;;21.88;45.46;99698.03;4942173;29;20036;-79
2021/05/24 00:15:39;;;;;;;4.95;2.90;;;;;;;21.83;45.64;99714.88;4941519;29;20024;-79
2021/05/24 00:18:05;;;;;;;3.40;3.10;;;;;;;21.88;45.71;99714.16;4941787;29;20083;-78
2021/05/24 00:20:35;;;;;;;4.53;3.38;;;;;;;21.83;45.91;99714.06;4912247;29;20060;-79
2021/05/24 00:23:00;;;;;;;4.10;3.05;;;;;;;21.49;46.10;99676.47;4941797;29;20035;-79
2021/05/24 00:25:27;;;;;;;4.90;3.30;;;;;;;20.98;46.29;99614.97;4922663;29;20020;-79
2021/05/24 00:27:53;;;;;;;4.07;3.13;;;;;;;21.51;46.66;99720.03;4938759;29;20051;-79
2021/05/24 00:30:19;;;;;;;5.22;3.40;;;;;;;21.40;46.69;99720.13;4939558;29;20035;-79
2021/05/24 00:32:46;;;;;;;3.95;3.20;;;;;;;21.30;47.03;99720.75;4925259;29;20016;-79
2021/05/24 00:35:12;;;;;;;5.00;3.28;;;;;;;21.18;46.94;99682.41;4924936;29;20016;-79
2021/05/24 00:37:38;;;;;;;4.00;3.15;;;;;;;21.32;47.39;99713.28;4935371;29;20031;-80
2021/05/24 00:40:06;;;;;;;4.07;3.30;;;;;;;21.04;47.12;99670.34;4924541;29;20036;-79
2021/05/24 00:42:32;;;;;;;3.53;2.95;;;;;;;21.21;47.17;99701.53;4923069;29;20035;-79
2021/05/24 00:44:57;;;;;;;4.00;3.60;;;;;;;21.04;47.47;99705.25;4934892;29;20032;-78
2021/05/24 00:47:23;;;;;;;3.97;3.28;;;;;;;20.65;47.39;99637.19;4916117;29;20579;-78
2021/05/24 00:49:48;;;;;;;3.10;2.80;;;;;;;21.29;47.47;99731.75;4899000;29;20435;-79
2021/05/24 00:52:14;;;;;;;6.88;3.22;;;;;;;20.89;47.44;99657.50;4918526;29;20044;-79
2021/05/24 00:54:41;;;;;;;4.38;3.42;;;;;;;21.42;47.30;99715.31;4923318;29;20088;-78
2021/05/24 00:57:07;;;;;;;4.25;3.33;;;;;;;21.23;47.41;99701.31;4899074;29;20091;-79
2021/05/24 00:59:35;;;;;;;6.30;3.03;;;;;;;21.29;47.37;99718.31;4916439;29;20039;-78
2021/05/24 01:02:00;;;;;;;4.22;3.70;;;;;;;21.04;47.59;99689.97;4899099;29;20027;-78
2021/05/24 01:04:26;;;;;;;3.17;2.90;;;;;;;21.14;47.85;99716.16;4898995;29;20491;-78
2021/05/24 01:06:55;;;;;;;4.50;3.28;;;;;;;21.13;48.01;99715.34;4899036;29;20220;-79
2021/05/24 01:09:20;;;;;;;4.28;3.58;;;;;;;20.79;47.86;99666.16;4916226;29;20032;-78
2021/05/24 01:11:49;;;;;;;4.25;3.42;;;;;;;20.71;48.01;99682.66;4915934;29;20483;-79
2021/05/24 01:14:16;;;;;;;3.60;3.30;;;;;;;21.03;48.08;99735.84;4916091;29;20036;-78
2021/05/24 01:16:45;;;;;;;3.67;3.35;;;;;;;20.94;48.27;99724.69;4898925;29;20035;-78
2021/05/24 01:19:11;;;;;;;5.30;3.42;;;;;;;20.39;48.58;99652.81;4898954;29;20032;-78
2021/05/24 01:21:37;;;;;;;4.05;3.20;;;;;;;20.53;48.55;99696.25;4918566;29;20032;-79
2021/05/24 01:24:03;;;;;;;4.18;3.10;;;;;;;20.66;48.87;99733.53;4919723;29;20036;-79
2021/05/24 01:26:28;;;;;;;4.45;3.13;;;;;;;20.75;48.69;99728.59;4919931;29;20032;-79
2021/05/24 01:28:54;;;;;;;5.22;3.97;;;;;;;20.41;48.61;99684.75;4919949;29;20039;-79
2021/05/24 01:31:20;;;;;;;4.90;3.60;;;;;;;20.70;48.94;99710.53;4903097;29;20024;-79
2021/05/24 01:33:46;;;;;;;4.20;3.08;;;;;;;20.69;48.59;99711.59;4919752;29;20055;-79
2021/05/24 01:36:12;;;;;;;3.67;3.08;;;;;;;20.43;49.03;99682.66;4902875;29;20496;-78
2021/05/24 01:38:42;;;;;;;3.58;3.17;;;;;;;20.17;48.95;99649.94;4919446;29;20583;-78
2021/05/24 01:41:11;;;;;;;4.15;3.50;;;;;;;19.96;49.00;99615.72;4902639;29;20510;-78
2021/05/24 01:43:37;;;;;;;3.90;3.40;;;;;;;20.24;49.29;99674.75;4919817;29;20028;-78
2021/05/24 01:46:04;;;;;;;4.03;3.10;;;;;;;20.51;49.33;99712.59;4919781;29;20119;-78
2021/05/24 01:48:31;;;;;;;4.10;3.55;;;;;;;20.16;49.28;99664.41;4919705;29;20051;-78
2021/05/24 01:50:57;;;;;;;3.47;3.17;;;;;;;20.53;49.33;99713.16;4919607;29;20070;-78
2021/05/24 01:53:23;;;;;;;5.22;3.40;;;;;;;19.97;49.51;99631.56;4902582;29;20052;-78
2021/05/24 01:55:49;;;;;;;4.43;3.30;;;;;;;20.45;49.54;99710.84;4902353;29;20032;-79
2021/05/24 01:58:16;;;;;;;6.53;3.83;;;;;;;20.24;49.63;99673.94;4919749;29;20051;-78
2021/05/24 02:00:41;;;;;;;4.78;3.47;;;;;;;20.55;49.50;99715.59;4919832;29;20091;-78
2021/05/24 02:03:07;;;;;;;6.80;3.60;;;;;;;20.60;49.48;99721.06;4919642;29;20492;-79
2021/05/24 02:05:34;;;;;;;3.72;3.33;;;;;;;20.25;49.57;99654.94;4919467;29;20036;-78
2021/05/24 02:08:00;;;;;;;5.47;3.70;;;;;;;20.68;49.27;99726.06;4919629;29;20111;-78
2021/05/24 02:10:29;;;;;;;4.95;3.35;;;;;;;20.74;49.40;99713.56;4902671;29;20055;-79
2021/05/24 02:12:56;;;;;;;3.92;3.53;;;;;;;20.36;49.51;99673.91;4919608;29;20110;-78
2021/05/24 02:15:27;;;;;;;4.15;3.30;;;;;;;20.76;49.30;99728.34;4902862;29;20036;-78
2021/05/24 02:17:52;;;;;;;4.35;3.28;;;;;;;20.23;49.24;99646.31;4919326;29;20032;-78
2021/05/24 02:20:23;;;;;;;3.53;3.13;;;;;;;20.78;49.23;99731.59;4920296;29;20091;-78
2021/05/24 02:22:48;;;;;;;7.18;3.88;;;;;;;20.62;49.18;99727.81;4920579;29;20032;-79
2021/05/24 02:25:15;;;;;;;13.18;3.58;;;;;;;20.02;49.05;99611.28;4918990;29;20046;-79
2021/05/24 02:27:40;;;;;;;7.07;3.63;;;;;;;19.89;49.23;99583.69;4918653;29;20036;-78
2021/05/24 02:30:07;;;;;;;7.93;4.10;;;;;;;20.59;49.48;99695.28;4902375;29;20133;-79
2021/05/24 02:32:32;;;;;;;7.60;3.58;;;;;;;20.69;49.43;99740.28;4901403;29;20089;-78
2021/05/24 02:34:58;;;;;;;5.95;3.40;;;;;;;20.61;49.20;99720.00;4902516;29;20645;-79
2021/05/24 02:37:24;;;;;;;4.82;3.75;;;;;;;20.68;49.23;99736.78;4919439;29;20561;-79
2021/05/24 02:39:49;;;;;;;4.22;3.53;;;;;;;19.57;49.39;99555.72;4918572;29;20055;-79
2021/05/24 02:42:15;;;;;;;4.60;3.67;;;;;;;20.66;49.52;99738.09;4902108;29;20024;-79
2021/05/24 02:44:41;;;;;;;5.07;3.70;;;;;;;20.23;49.38;99664.25;4918999;29;20479;-78
2021/05/24 02:47:06;;;;;;;6.72;3.35;;;;;;;20.29;49.62;99685.56;4901731;29;20035;-79
2021/05/24 02:49:31;;;;;;;4.22;3.60;;;;;;;20.40;49.71;99699.22;4902110;29;20028;-79
2021/05/24 02:51:57;;;;;;;4.05;3.50;;;;;;;20.19;49.88;99671.16;4918665;29;20530;-79
2021/05/24 02:54:22;;;;;;;5.80;3.95;;;;;;;20.63;50.01;99752.78;4918073;29;20038;-79
2021/05/24 02:56:48;;;;;;;5.70;4.20;;;;;;;20.33;49.97;99710.06;4900960;29;20475;-79
2021/05/24 02:59:13;;;;;;;10.50;4.22;;;;;;;20.37;50.18;99734.53;4900756;29;20388;-78
2021/05/24 03:01:39;;;;;;;5.07;4.10;;;;;;;20.51;50.16;99760.06;4917894;29;20032;-78
2021/05/24 03:04:07;;;;;;;6.68;4.20;;;;;;;20.43;50.26;99760.44;4917717;29;20115;-78
2021/05/24 03:06:33;;;;;;;7.93;4.35;;;;;;;20.36;50.23;99743.63;4917644;29;20032;-78
2021/05/24 03:08:59;;;;;;;8.88;4.55;;;;;;;20.45;50.23;99779.78;4917474;29;20056;-79
2021/05/24 03:11:24;;;;;;;5.20;3.58;;;;;;;20.51;50.42;99781.50;4900368;29;20086;-78
2021/05/24 03:13:50;;;;;;;8.48;4.75;;;;;;;20.26;50.59;99754.94;4917685;29;20464;-79
2021/05/24 03:16:16;;;;;;;6.72;4.40;;;;;;;20.54;50.50;99786.41;4900422;29;20028;-78
2021/05/24 03:18:41;;;;;;;5.63;3.85;;;;;;;20.35;50.75;99758.91;4917535;29;20032;-79
2021/05/24 03:21:07;;;;;;;7.13;4.60;;;;;;;20.42;50.92;99773.03;4900489;29;20063;-79
2021/05/24 03:23:33;;;;;;;5.95;4.07;;;;;;;20.37;50.92;99755.97;4900514;29;20043;-78
2021/05/24 03:25:58;;;;;;;7.25;4.20;;;;;;;19.85;50.88;99673.63;4917585;29;20406;-79
2021/05/24 03:28:24;;;;;;;8.85;4.03;;;;;;;20.53;50.95;99790.13;4900308;29;20427;-79
2021/05/24 03:30:49;;;;;;;5.95;4.28;;;;;;;20.39;51.14;99783.38;4900220;29;20032;-79
2021/05/24 03:33:15;;;;;;;9.05;4.13;;;;;;;20.29;51.14;99765.22;4900288;29;20071;-79
2021/05/24 03:35:40;;;;;;;6.63;4.38;;;;;;;20.16;51.13;99742.16;4900252;29;20064;-79
2021/05/24 03:38:06;;;;;;;11.15;4.50;;;;;;;20.47;51.34;99793.78;4899883;29;20056;-79
2021/05/24 03:40:31;;;;;;;12.23;4.70;;;;;;;20.38;51.30;99790.59;4916920;29;20028;-79
2021/05/24 03:42:57;;;;;;;9.23;4.75;;;;;;;20.37;51.22;99791.66;4899766;29;20040;-78
2021/05/24 03:45:26;;;;;;;10.32;4.50;;;;;;;20.40;51.15;99777.00;4900114;29;20051;-79
2021/05/24 03:47:51;;;;;;;8.80;4.20;;;;;;;20.40;51.19;99777.81;4899818;29;20028;-78
2021/05/24 03:50:17;;;;;;;9.07;4.50;;;;;;;20.69;51.02;99829.63;4900824;29;20590;-79
2021/05/24 03:52:44;;;;;;;10.18;4.85;;;;;;;20.19;51.14;99736.31;4917850;29;20530;-78
2021/05/24 03:55:11;;;;;;;8.40;4.53;;;;;;;20.54;51.30;99797.13;4916920;29;20035;-78
2021/05/24 03:57:36;;;;;;;10.15;4.43;;;;;;;20.08;51.48;99723.75;4916798;29;20031;-78
2021/05/24 04:00:05;;;;;;;7.05;4.35;;;;;;;20.73;51.31;99830.81;4899509;29;20028;-79
2021/05/24 04:02:30;;;;;;;5.35;4.28;;;;;;;20.79;51.12;99835.22;4899722;29;20475;-78
2021/05/24 04:04:57;;;;;;;8.98;5.15;;;;;;;20.83;51.10;99851.69;4916561;29;20096;-79
2021/05/24 04:07:24;;;;;;;10.88;4.57;;;;;;;20.53;51.10;99796.31;4899644;29;20537;-79
2021/05/24 04:09:50;;;;;;;5.35;4.63;;;;;;;20.95;50.84;99849.78;4916904;29;20024;-78
2021/05/24 04:12:17;;;;;;;5.18;4.57;;;;;;;20.59;50.87;99792.69;4917214;29;20055;-79
2021/05/24 04:14:43;;;;;;;6.13;5.03;;;;;;;20.85;50.81;99831.63;4916451;29;20028;-78
2021/05/24 04:17:10;;;;;;;7.68;4.82;;;;;;;20.89;50.85;99835.44;4899217;29;20024;-79
2021/05/24 04:19:35;;;;;;;9.73;5.28;;;;;;;20.86;50.79;99830.56;4899543;29;20032;-79
2021/05/24 04:22:01;;;;;;;9.73;4.80;;;;;;;21.05;51.05;99881.38;4916803;29;20030;-78
2021/05/24 04:24:26;;;;;;;14.43;4.97;;;;;;;20.35;50.89;99750.03;4899277;29;20140;-78
2021/05/24 04:26:52;;;;;;;9.93;5.25;;;;;;;20.84;50.81;99819.25;4899457;29;20119;-78
2021/05/24 04:29:17;;;;;;;7.40;4.30;;;;;;;21.11;50.81;99856.28;4899635;29;20020;-79
2021/05/24 04:31:42;;;;;;;6.75;4.70;;;;;;;21.31;50.93;99888.09;4916519;29;20546;-79
2021/05/24 04:34:08;;;;;;;8.15;4.28;;;;;;;20.83;51.33;99814.13;4899385;29;20035;-79
2021/05/24 04:36:33;;;;;;;9.88;4.85;;;;;;;21.42;51.25;99880.00;4899262;29;20027;-78
2021/05/24 04:38:59;;;;;;;12.85;5.30;;;;;;;20.93;51.11;99814.31;4898765;29;20427;-79
2021/05/24 04:41:24;;;;;;;11.85;5.53;;;;;;;21.39;51.12;99882.34;4916435;29;20028;-78
2021/05/24 04:43:55;;;;;;;7.35;4.68;;;;;;;21.36;51.08;99864.84;4916003;29;20031;-78
2021/05/24 04:46:20;;;;;;;5.03;4.50;;;;;;;21.27;50.93;99849.34;4916295;29;20046;-79
2021/05/24 04:48:46;;;;;;;5.80;4.53;;;;;;;21.05;50.80;99816.97;4899159;29;20276;-78
2021/05/24 04:51:11;;;;;;;6.55;4.18;;;;;;;21.43;50.75;99884.31;4898935;29;20028;-79
2021/05/24 04:53:37;;;;;;;4.57;4.18;;;;;;;21.11;50.62;99824.06;4899133;29;20028;-79
2021/05/24 04:56:02;;;;;;;5.75;4.10;;;;;;;21.24;50.65;99864.88;4919915;29;20020;-79
2021/05/24 04:58:27;;;;;;;6.28;4.15;;;;;;;21.57;50.38;99898.28;4905419;29;20457;-79
2021/05/24 05:00:53;;;;;;;9.15;4.72;;;;;;;21.47;50.56;99880.09;4905409;29;20535;-79
2021/05/24 05:03:18;;;;;;;5.60;4.63;;;;;;;21.53;50.41;99889.06;4905273;29;20025;-79
2021/05/24 05:05:44;;;;;;;5.30;4.32;;;;;;;21.16;50.47;99818.78;4921999;29;20035;-79
2021/05/24 05:08:09;;;;;;;9.45;4.70;;;;;;;21.77;50.39;99922.03;4922407;29;20028;-79
2021/05/24 05:10:35;;;;;;;4.97;4.18;;;;;;;21.25;50.01;99833.47;4905119;29;20035;-79
2021/05/24 05:13:01;;;;;;;5.68;4.20;;;;;;;21.30;49.71;99859.63;4922249;29;20020;-79
2021/05/24 05:15:26;;;;;;;5.32;3.58;;;;;;;21.49;49.49;99856.47;4905541;29;20521;-78
2021/05/24 05:17:51;;;;;;;6.30;3.83;;;;;;;21.58;49.07;99851.56;4905860;29;20403;-79
2021/05/24 05:20:17;;;;;;;6.63;3.97;;;;;;;21.55;48.92;99844.78;4911362;29;20111;-79
2021/05/24 05:22:42;;;;;;;5.40;3.78;;;;;;;21.65;48.68;99860.28;4905155;29;20115;-79
2021/05/24 05:25:08;;;;;;;3.97;3.20;;;;;;;21.93;48.41;99910.47;4905305;29;20095;-79
2021/05/24 05:27:34;;;;;;;5.55;3.60;;;;;;;21.92;48.51;99910.72;4921745;29;20049;-79
2021/05/24 05:29:59;;;;;;;4.50;3.70;;;;;;;21.57;48.19;99849.94;4905014;29;20028;-79
2021/05/24 05:32:25;;;;;;;4.20;3.65;;;;;;;22.06;48.13;99922.81;4905081;29;20075;-79
2021/05/24 05:34:50;;;;;;;4.88;3.95;;;;;;;21.97;48.03;99890.13;4922195;29;20438;-78
2021/05/24 05:37:18;;;;;;;4.40;3.40;;;;;;;21.66;48.04;99835.03;4922109;29;20067;-79
2021/05/24 05:39:43;;;;;;;7.30;3.28;;;;;;;21.98;48.01;99888.25;4921613;29;20094;-79
2021/05/24 05:42:09;;;;;;;6.00;3.80;;;;;;;22.43;47.92;99952.75;4904759;29;20031;-78
2021/05/24 05:44:35;;;;;;;7.90;3.33;;;;;;;22.23;47.90;99920.13;4904884;29;20055;-78
2021/05/24 05:47:00;;;;;;;4.45;3.53;;;;;;;22.10;47.85;99889.00;4904591;29;20067;-79
2021/05/24 05:49:26;;;;;;;4.55;3.20;;;;;;;22.37;47.61;99914.19;4904897;29;20028;-78
2021/05/24 05:51:51;;;;;;;3.53;3.22;;;;;;;22.33;47.55;99901.50;4905131;29;20107;-79
2021/05/24 05:54:16;;;;;;;5.95;3.35;;;;;;;21.95;47.45;99829.56;4905035;29;20034;-79
2021/05/24 05:56:42;;;;;;;6.32;4.15;;;;;;;22.56;47.51;99922.81;4921851;29;20032;-79
2021/05/24 05:59:07;;;;;;;4.45;3.45;;;;;;;22.16;47.26;99839.59;4904721;29;20031;-79
2021/05/24 06:01:33;;;;;;;6.28;3.40;;;;;;;22.64;47.33;99935.84;4904834;29;20031;-79
2021/05/24 06:03:58;;;;;;;3.85;3.45;;;;;;;22.66;47.10;99922.97;4904668;29;20028;-79
2021/05/24 06:06:24;;;;;;;4.10;3.03;;;;;;;22.30;47.06;99861.63;4921027;29;20028;-79
2021/05/24 06:08:49;;;;;;;4.47;3.10;;;;;;;22.76;46.96;99941.13;4901560;29;20055;-78
2021/05/24 06:11:15;;;;;;;5.07;3.28;;;;;;;22.86;46.77;99941.31;4901575;29;20043;-79
2021/05/24 06:13:40;;;;;;;3.40;3.00;;;;;;;22.46;46.74;99887.69;4901632;29;20056;-79
2021/05/24 06:16:06;;;;;;;4.93;2.92;;;;;;;23.04;46.33;99967.16;4901806;29;20451;-78
2021/05/24 06:18:32;;;;;;;5.75;2.75;;;;;;;22.40;46.29;99856.38;4901479;29;20093;-79
2021/05/24 06:20:57;;;;;;;5.13;3.20;;;;;;;23.00;45.60;99960.59;4918590;29;20035;-79
2021/05/24 06:23:23;;;;;;;4.38;3.22;;;;;;;22.68;45.80;99899.31;4918662;29;20024;-79
2021/05/24 06:25:48;;;;;;;5.60;3.22;;;;;;;22.46;45.62;99866.97;4917106;29;20028;-79
2021/05/24 06:28:14;;;;;;;4.60;2.97;;;;;;;22.78;45.36;99901.31;4918330;29;20028;-79
2021/05/24 06:30:40;;;;;;;5.30;3.08;;;;;;;23.19;45.35;99969.22;4901342;29;20024;-78
2021/05/24 06:33:06;;;;;;;11.65;3.72;;;;;;;23.10;45.44;99960.78;4918299;29;20036;-79
2021/05/24 06:35:31;;;;;;;6.97;3.80;;;;;;;22.99;45.46;99967.88;4918562;29;20103;-79
2021/05/24 06:37:57;;;;;;;6.80;4.47;;;;;;;23.09;45.52;99962.66;4918242;29;20188;-79
2021/05/24 06:40:22;;;;;;;6.55;4.13;;;;;;;22.89;45.63;99940.81;4918633;29;20024;-79
2021/05/24 06:42:49;;;;;;;6.15;3.97;;;;;;;23.02;45.71;99945.81;4901104;29;20028;-79
2021/05/24 06:45:16;;;;;;;8.00;4.18;;;;;;;22.68;45.72;99879.66;4918478;29;20040;-79
2021/05/24 06:47:42;;;;;;;6.70;4.30;;;;;;;23.31;45.75;99961.84;4924050;29;20028;-79
2021/05/24 06:50:08;;;;;;;5.43;4.60;;;;;;;23.14;45.81;99926.88;4902553;29;20032;-79
2021/05/24 06:52:34;;;;;;;6.47;3.67;;;;;;;23.42;45.54;99959.00;4901006;29;20049;-79
2021/05/24 06:55:00;;;;;;;9.75;3.90;;;;;;;23.21;45.69;99918.59;4917801;29;20051;-79
2021/05/24 06:57:26;;;;;;;6.30;3.70;;;;;;;23.67;45.71;99984.66;4917956;29;20076;-79
2021/05/24 06:59:51;;;;;;;7.05;3.60;;;;;;;23.71;45.63;99988.47;4918008;29;20627;-79
2021/05/24 07:02:17;;;;;;;7.82;3.50;;;;;;;23.87;45.47;99992.16;4900736;29;20154;-79
2021/05/24 07:04:44;;;;;;;8.10;4.25;;;;;;;23.89;45.41;99993.53;4917761;29;20068;-79
2021/05/24 07:07:09;;;;;;;4.50;4.10;;;;;;;23.92;45.18;100001.13;4900744;29;20024;-79
2021/05/24 07:09:35;;;;;;;6.00;3.67;;;;;;;23.82;45.48;99965.16;4900633;29;20039;-79
2021/05/24 07:12:00;;;;;;;5.10;3.70;;;;;;;24.05;45.55;100005.28;4917772;29;20024;-79
2021/05/24 07:14:26;;;;;;;6.47;4.32;;;;;;;23.09;45.38;99829.84;4900795;29;20031;-79
2021/05/24 07:16:53;;;;;;;8.40;4.15;;;;;;;23.75;45.40;99946.44;4917361;29;20032;-79
2021/05/24 07:19:19;;;;;;;5.82;3.80;;;;;;;23.52;45.49;99900.88;4917033;29;20456;-79
2021/05/24 07:21:44;;;;;;;6.25;4.20;;;;;;;23.95;45.31;99965.53;4917487;29;20059;-79
2021/05/24 07:24:10;;;;;;;5.03;3.97;;;;;;;24.19;45.30;99993.00;4917241;29;20578;-79
2021/05/24 07:26:35;;;;;;;6.00;4.10;;;;;;;24.30;45.22;100016.34;4917258;29;20028;-79
2021/05/24 07:29:00;;;;;;;7.35;3.85;;;;;;;24.27;44.77;99989.06;4900254;29;20066;-79
2021/05/24 07:31:26;;;;;;;5.53;3.53;;;;;;;24.49;44.50;100016.78;4917381;29;20111;-79
2021/05/24 07:33:51;;;;;;;5.97;4.03;;;;;;;24.40;44.39;100000.25;4917171;29;20080;-79
2021/05/24 07:36:17;;;;;;;8.93;3.60;;;;;;;24.04;44.66;99915.47;4900278;29;20103;-79
2021/05/24 07:38:42;;;;;;;6.35;4.20;;;;;;;24.40;44.42;99953.53;4917032;29;20107;-79
2021/05/24 07:41:07;;;;;;;5.88;4.70;;;;;;;24.37;44.11;99929.75;4900411;29;20032;-79
2021/05/24 07:43:33;;;;;;;12.63;4.30;;;;;;;24.44;43.97;99930.34;4900374;29;20024;-79
2021/05/24 07:45:58;;;;;;;5.45;3.63;;;;;;;25.05;43.94;100025.31;4917031;29;20089;-79
2021/05/24 07:48:24;;;;;;;6.97;3.97;;;;;;;24.74;43.86;99954.06;4916935;29;20031;-79
2021/05/24 07:50:49;;;;;;;5.43;3.88;;;;;;;24.93;43.55;99986.84;4917095;29;20452;-79
2021/05/24 07:53:15;;;;;;;7.57;3.97;;;;;;;25.29;43.45;100017.63;4899726;29;20042;-79
2021/05/24 07:55:40;;;;;;;6.40;4.05;;;;;;;25.37;43.35;100009.03;4899969;29;20111;-79
2021/05/24 07:58:06;;;;;;;8.07;4.32;;;;;;;25.52;43.00;100035.31;4917095;29;20058;-79
2021/05/24 08:00:31;;;;;;;9.10;3.95;;;;;;;25.31;43.34;100008.19;4899797;29;20028;-79
2021/05/24 08:02:57;;;;;;;9.38;3.70;;;;;;;25.40;43.08;100032.81;4917048;29;20028;-79
2021/05/24 08:05:22;;;;;;;5.45;3.65;;;;;;;25.57;42.86;100067.78;4916711;29;20071;-79
2021/05/24 08:07:48;;;;;;;7.72;4.13;;;;;;;25.19;42.61;99993.22;4899370;29;20032;-79
2021/05/24 08:10:16;;;;;;;8.48;4.03;;;;;;;25.67;42.50;100073.25;4899653;29;20028;-78
2021/05/24 08:12:42;;;;;;;6.10;3.40;;;;;;;25.70;41.98;100064.63;4917210;29;20035;-79
2021/05/24 08:15:15;;;;;;;9.27;3.50;;;;;;;25.61;40.23;100049.94;4919399;29;20035;-78
2021/05/24 08:17:41;;;;;;;10.85;3.60;;;;;;;25.92;40.84;100056.31;4907552;29;20020;-78
2021/05/24 08:20:08;;;;;;;5.55;3.10;;;;;;;26.00;40.69;100063.09;4915343;29;20118;-78
2021/05/24 08:22:34;;;;;;;5.43;3.20;;;;;;;26.03;40.61;100057.97;4916442;29;20034;-78
2021/05/24 08:24:59;;;;;;;9.10;5.82;;;;;;;25.68;40.16;99971.31;4899469;29;20028;-78
2021/05/24 08:27:25;;;;;;;7.30;4.85;;;;;;;26.35;40.02;100040.72;4916412;29;20133;-79
2021/05/24 08:29:51;;;;;;;11.25;6.15;;;;;;;26.63;39.62;100066.47;4915598;29;20024;-78
2021/05/24 08:32:17;;;;;;;7.63;2.97;;;;;;;26.37;39.17;100011.50;4899416;29;20024;-78
2021/05/24 08:34:42;;;;;;;4.05;3.13;;;;;;;26.76;38.95;100080.31;4916257;29;20031;-79
2021/05/24 08:37:07;;;;;;;4.07;2.80;;;;;;;26.75;39.14;100069.72;4899355;29;20020;-78
2021/05/24 08:39:33;;;;;;;5.70;3.40;;;;;;;26.49;38.76;100007.44;4915921;29;20523;-80
2021/05/24 08:41:59;;;;;;;6.57;3.17;;;;;;;26.60;38.84;100010.94;4899369;29;20024;-78
2021/05/24 08:44:27;;;;;;;8.57;3.17;;;;;;;26.71;38.47;99990.88;4899384;29;20046;-79
2021/05/24 08:46:52;;;;;;;4.82;2.80;;;;;;;27.18;38.50;100047.47;4899262;29;20099;-79
2021/05/24 08:49:18;;;;;;;7.38;3.20;;;;;;;27.21;38.35;100002.75;4899083;29;20494;-78
2021/05/24 08:51:43;;;;;;;4.82;2.95;;;;;;;27.57;38.02;100035.16;4916316;29;20020;-78
2021/05/24 08:54:09;;;;;;;7.25;3.22;;;;;;;27.65;37.45;100021.88;4899382;29;20024;-79
2021/05/24 08:56:34;;;;;;;7.63;2.67;;;;;;;27.72;37.51;100030.50;4899326;29;20078;-79
2021/05/24 08:59:01;;;;;;;5.10;2.88;;;;;;;27.96;37.06;100036.06;4916083;29;20027;-79
2021/05/24 09:01:27;;;;;;;4.47;2.70;;;;;;;27.93;36.57;100044.78;4916172;29;20538;-78
2021/05/24 09:04:01;;;;;;;5.53;3.22;;;;;;;27.50;35.90;99940.53;4898869;29;20492;-79
2021/05/24 09:06:38;;;;;;;7.63;2.70;;;;;;;28.04;36.30;100031.97;4898918;29;20035;-78
2021/05/24 09:09:14;;;;;;;5.82;2.70;;;;;;;27.95;35.60;99985.59;4898782;29;20024;-79
2021/05/24 09:11:41;;;;;;;7.38;3.00;;;;;;;28.41;35.98;100037.72;4915907;29;20024;-78
2021/05/24 09:14:16;;;;;;;4.00;3.10;;;;;;;28.60;35.19;100037.84;4915757;29;20039;-78
2021/05/24 09:16:42;;;;;;;4.43;2.78;;;;;;;28.63;35.31;100036.44;4898950;29;20032;-79
2021/05/24 09:19:13;;;;;;;5.18;2.72;;;;;;;28.80;34.83;100045.00;4916100;29;20063;-79
2021/05/24 09:21:39;;;;;;;6.45;2.85;;;;;;;28.84;34.66;100026.22;4915950;29;20480;-79
2021/05/24 09:24:28;;;;;;;8.93;5.93;;;;;;;29.21;33.94;100033.75;4915970;29;20024;-79
2021/05/24 09:26:54;;;;;;;9.88;5.53;;;;;;;29.03;34.50;99998.06;4898738;29;20024;-79
2021/05/24 09:29:23;;;;;;;7.30;3.42;;;;;;;29.27;34.03;100011.66;4915945;29;20024;-79
2021/05/24 09:32:14;;;;;;;4.38;2.80;;;;;;;29.51;33.95;100029.88;4915886;29;20024;-79
2021/05/24 09:34:41;;;;;;;5.43;3.10;;;;;;;29.64;33.65;100029.16;4898967;29;20024;-79
2021/05/24 09:37:07;;;;;;;5.10;3.85;;;;;;;29.82;33.57;100036.56;4898876;29;20025;-79
2021/05/24 09:39:33;;;;;;;9.38;3.55;;;;;;;30.06;33.54;100020.19;4898466;29;20092;-79
2021/05/24 09:42:04;;;;;;;4.10;3.20;;;;;;;30.21;33.44;100019.97;4900685;29;20035;-79
2021/05/24 09:44:32;;;;;;;4.20;2.88;;;;;;;29.98;33.15;99969.09;4921314;29;20047;-79
2021/05/24 09:46:58;;;;;;;5.78;3.33;;;;;;;30.11;32.94;99948.50;4909728;29;20115;-79
2021/05/24 09:49:28;;;;;;;7.75;2.90;;;;;;;30.64;31.77;100015.22;4902121;29;20036;-79
2021/05/24 09:51:54;;;;;;;10.55;4.20;;;;;;;30.50;31.39;99972.66;4902459;29;20028;-79
2021/05/24 09:54:26;;;;;;;7.47;4.80;;;;;;;30.84;31.39;100011.31;4918913;29;20028;-79
2021/05/24 09:56:51;;;;;;;6.25;3.33;;;;;;;30.73;31.40;99966.25;4919444;29;20050;-79
2021/05/24 09:59:21;;;;;;;4.97;3.22;;;;;;;31.16;30.99;100004.19;4902090;29;20047;-79
2021/05/24 10:01:54;;;;;;;4.97;2.27;;;;;;;31.23;30.53;99996.44;4919227;29;20036;-79
2021/05/24 10:04:32;;;;;;;3.95;2.40;;;;;;;30.51;30.11;99914.31;4902213;29;20024;-79
2021/05/24 10:07:02;;;;;;;2.70;2.38;;;;;;;31.21;30.80;99993.16;4901738;29;20663;-78
2021/05/24 10:09:31;;;;;;;4.18;2.33;;;;;;;31.40;30.40;99993.09;4918902;29;20160;-79
2021/05/24 10:11:57;;;;;;;6.85;2.85;;;;;;;31.47;30.62;99991.56;4918859;29;20043;-79
2021/05/24 10:14:24;;;;;;;4.10;2.65;;;;;;;31.62;30.50;99974.03;4901831;29;20419;-79
2021/05/24 10:16:57;;;;;;;2.92;2.10;;;;;;;31.88;30.16;99977.00;4901802;29;20517;-79
2021/05/24 10:19:23;;;;;;;4.35;2.90;;;;;;;31.50;30.10;99906.34;4918593;29;20503;-79
2021/05/24 10:21:50;;;;;;;5.40;3.60;;;;;;;32.02;30.26;99982.47;4918571;29;20038;-79
2021/05/24 10:24:20;;;;;;;3.20;2.30;;;;;;;31.90;30.16;99970.13;4901689;29;20066;-79
2021/05/24 10:26:47;;;;;;;5.53;2.38;;;;;;;31.97;30.08;99982.56;4918586;29;20031;-79
2021/05/24 10:29:14;;;;;;;7.90;3.20;;;;;;;31.81;30.11;99941.13;4918340;29;20035;-78
2021/05/24 10:31:40;;;;;;;3.83;2.15;;;;;;;32.29;29.97;100004.22;4918482;29;20032;-79
2021/05/24 10:34:17;;;;;;;7.38;3.42;;;;;;;32.00;29.76;99921.88;4901267;29;20072;-79
2021/05/24 10:36:45;;;;;;;6.40;2.92;;;;;;;32.30;29.66;99973.03;4918412;29;20028;-79
2021/05/24 10:39:16;;;;;;;3.55;2.78;;;;;;;32.40;29.41;99980.19;4918179;29;20076;-79
2021/05/24 10:41:43;;;;;;;19.88;11.90;;;;;;;32.66;29.56;99974.84;4901410;29;20028;-79
2021/05/24 10:44:10;;;;;;;6.25;4.40;;;;;;;32.69;29.29;99947.69;4918112;29;20024;-79
2021/05/24 10:46:35;;;;;;;6.18;3.33;;;;;;;32.90;28.85;99969.06;4918184;29;20020;-79
2021/05/24 10:49:10;;;;;;;9.43;2.95;;;;;;;33.06;28.20;99960.09;4901162;29;20027;-79
2021/05/24 10:51:50;;;;;;;4.25;2.60;;;;;;;33.13;28.82;99967.84;4917842;29;20075;-79
2021/05/24 10:54:22;;;;;;;4.68;3.05;;;;;;;33.22;28.35;99973.34;4917045;29;20051;-79
2021/05/24 10:57:00;;;;;;;6.03;3.13;;;;;;;33.43;28.28;99971.66;4900796;29;20507;-79
2021/05/24 10:59:45;;;;;;;5.65;4.25;;;;;;;33.68;27.97;99967.34;4918046;29;20048;-79
2021/05/24 11:02:30;;;;;;;3.90;2.40;;;;;;;33.79;27.90;99949.47;4918143;29;20032;-79
2021/05/24 11:05:04;;;;;;;3.13;2.20;;;;;;;33.90;27.25;99964.47;4901227;29;20027;-79
2021/05/24 11:07:34;;;;;;;5.25;2.58;;;;;;;33.84;26.95;99937.56;4918135;29;20452;-79
2021/05/24 11:10:15;;;;;;;7.85;2.55;;;;;;;34.00;26.97;99964.16;4901103;29;20068;-79
2021/05/24 11:12:42;;;;;;;5.53;3.20;;;;;;;33.80;27.31;99926.44;4917912;29;20020;-79
2021/05/24 11:15:09;;;;;;;3.72;2.65;;;;;;;34.20;27.49;99950.94;4901155;29;20032;-79
2021/05/24 11:18:02;;;;;;;3.22;2.50;;;;;;;33.98;28.65;99924.50;4907713;29;20028;-79
2021/05/24 11:20:50;;;;;;;4.88;3.05;;;;;;;34.00;28.61;99953.19;4916487;29;20503;-80
2021/05/24 11:26:37;;;;;;;4.05;2.40;;;;;;;34.48;28.16;99949.44;4917498;29;20028;-79
2021/05/24 11:29:17;;;;;;;5.38;2.63;;;;;;;34.63;28.43;99951.66;4917411;29;20116;-79
2021/05/24 11:31:47;;;;;;;6.28;2.90;;;;;;;34.54;28.28;99950.88;4917376;29;20035;-79
2021/05/24 11:34:36;;;;;;;5.40;3.08;;;;;;;34.68;28.49;99953.41;4900404;29;20036;-79